createdAt,value
2022-09-12T04:00:31.811Z,11.90
2022-09-12T04:11:36.664Z,11.20
2022-09-12T04:22:36.537Z,10.00
2022-09-12T04:33:36.456Z,9.70
2022-09-12T04:44:36.301Z,10.10
2022-09-12T04:55:36.175Z,9.70
2022-09-12T05:06:36.028Z,9.80
2022-09-12T05:17:35.906Z,12.80
2022-09-12T05:28:35.778Z,11.70
2022-09-12T05:39:35.671Z,12.70
2022-09-12T05:50:35.542Z,11.90
2022-09-12T06:01:35.458Z,12.70
2022-09-12T06:12:35.321Z,10.90
2022-09-12T06:23:35.166Z,13.40
2022-09-12T06:34:35.045Z,15.90
2022-09-12T06:45:34.921Z,13.30
2022-09-12T06:56:34.797Z,16.40
2022-09-12T07:07:34.649Z,14.50
2022-09-12T07:18:34.533Z,15.20
2022-09-12T07:29:37.428Z,12.90
2022-09-12T07:40:34.289Z,14.30
2022-09-12T07:51:34.163Z,11.20
2022-09-12T08:02:34.095Z,12.90
2022-09-12T08:13:33.898Z,13.00
2022-09-12T08:24:33.774Z,12.30
2022-09-12T08:35:33.659Z,13.40
2022-09-12T08:46:33.552Z,11.20
2022-09-12T08:57:33.420Z,10.70
2022-09-12T09:08:33.276Z,10.70
2022-09-12T09:19:33.175Z,8.80
2022-09-12T09:30:33.039Z,8.20
2022-09-12T09:41:32.954Z,7.60
2022-09-12T09:52:32.789Z,9.00
2022-09-12T10:03:32.663Z,9.20
2022-09-12T10:14:32.531Z,8.10
2022-09-12T10:25:32.435Z,5.90
2022-09-12T10:36:32.276Z,5.70
2022-09-12T10:47:32.164Z,5.40
2022-09-12T10:58:32.038Z,4.10
2022-09-12T11:09:31.919Z,3.40
2022-09-12T11:20:31.782Z,4.30
2022-09-12T11:31:31.657Z,4.10
2022-09-12T11:42:31.532Z,3.70
2022-09-12T11:53:31.433Z,3.90
2022-09-12T12:04:31.294Z,3.40
2022-09-12T12:15:31.271Z,3.90
2022-09-12T12:16:26.160Z,3.90
2022-09-12T12:17:26.159Z,4.20
2022-09-12T12:28:34.922Z,3.10
2022-09-12T12:29:26.015Z,3.10
2022-09-12T12:30:26.014Z,3.30
2022-09-12T12:41:30.892Z,2.50
2022-09-12T12:42:25.879Z,2.60
2022-09-12T12:43:25.906Z,3.20
2022-09-12T12:54:30.742Z,3.00
2022-09-12T12:55:25.733Z,3.20
2022-09-12T12:56:25.727Z,3.10
2022-09-12T13:07:30.600Z,2.60
2022-09-12T13:18:30.485Z,2.80
2022-09-12T13:29:30.365Z,3.00
2022-09-12T13:40:30.236Z,2.70
2022-09-12T13:51:30.111Z,2.80
2022-09-12T14:02:30.008Z,2.40
2022-09-12T14:13:29.870Z,2.50
2022-09-12T14:24:29.748Z,1.80
2022-09-12T14:35:29.645Z,2.10
2022-09-12T14:46:29.555Z,2.40
2022-09-12T14:57:29.375Z,2.50
2022-09-12T15:08:29.255Z,2.40
2022-09-12T15:19:29.124Z,2.40
2022-09-12T15:30:29.013Z,2.20
2022-09-12T15:41:28.878Z,3.00
2022-09-12T15:52:28.757Z,2.40
2022-09-12T16:03:28.646Z,2.40
2022-09-12T16:14:28.508Z,2.80
2022-09-12T16:25:28.391Z,2.00
2022-09-12T16:36:28.263Z,2.80
2022-09-12T16:47:28.146Z,2.70
2022-09-12T16:58:28.040Z,2.50
2022-09-12T17:09:27.889Z,2.80
2022-09-12T17:20:27.784Z,2.30
2022-09-12T17:31:27.834Z,2.70
2022-09-12T17:42:27.524Z,2.80
2022-09-12T17:53:27.399Z,2.90
2022-09-12T18:04:27.270Z,3.80
2022-09-12T18:15:27.156Z,2.90
2022-09-12T18:26:27.031Z,3.10
2022-09-12T18:37:26.894Z,2.80
2022-09-12T18:48:26.770Z,4.10
2022-09-12T18:59:26.649Z,4.80
2022-09-12T19:10:26.568Z,3.80
2022-09-12T19:21:26.435Z,4.30
2022-09-12T19:32:26.366Z,2.50
2022-09-12T19:43:26.161Z,4.20
2022-09-12T19:54:26.074Z,4.60
2022-09-12T20:05:25.941Z,3.20
2022-09-12T20:16:25.980Z,3.60
2022-09-12T20:27:25.674Z,4.00
2022-09-12T20:38:25.575Z,4.80
2022-09-12T20:49:25.418Z,4.30
